createdAt,value
2022-09-15T00:00:26.035Z,56.37
2022-09-15T00:02:58.817Z,56.14
2022-09-15T00:05:32.977Z,56.94
2022-09-15T00:08:05.728Z,56.59
2022-09-15T00:10:38.419Z,56.34
2022-09-15T00:13:11.070Z,57.13
2022-09-15T00:15:44.112Z,56.37
2022-09-15T00:18:16.839Z,57.48
2022-09-15T00:20:50.863Z,57.80
2022-09-15T00:23:23.590Z,56.78
2022-09-15T00:25:56.334Z,57.22
2022-09-15T00:28:29.001Z,56.63
2022-09-15T00:31:01.667Z,57.54
2022-09-15T00:33:34.704Z,57.56
2022-09-15T00:36:09.993Z,56.68
2022-09-15T00:38:43.097Z,57.24
2022-09-15T00:41:19.261Z,57.55
2022-09-15T00:43:54.672Z,56.65
2022-09-15T00:46:31.108Z,57.14
2022-09-15T00:49:10.598Z,58.18
2022-09-15T00:51:50.600Z,57.36
2022-09-15T00:54:28.035Z,56.87
2022-09-15T00:57:04.829Z,57.75
2022-09-15T00:59:41.245Z,57.41
2022-09-15T01:02:18.557Z,57.38
2022-09-15T01:04:58.027Z,57.33
2022-09-15T01:07:38.618Z,56.95
2022-09-15T01:10:15.801Z,56.47
2022-09-15T01:12:48.960Z,57.18
2022-09-15T01:15:25.595Z,56.83
2022-09-15T01:18:10.391Z,56.93
2022-09-15T01:21:03.426Z,57.03
2022-09-15T01:23:59.407Z,57.59
2022-09-15T01:26:58.417Z,56.77
2022-09-15T01:29:48.844Z,56.44
2022-09-15T01:32:43.452Z,56.78
2022-09-15T01:35:28.024Z,57.03
2022-09-15T01:38:07.720Z,57.10
2022-09-15T01:40:45.449Z,57.27
2022-09-15T01:43:22.145Z,57.79
2022-09-15T01:45:57.898Z,57.00
2022-09-15T01:48:32.558Z,56.83
2022-09-15T01:51:08.709Z,56.88
2022-09-15T01:53:42.112Z,57.22
2022-09-15T01:56:14.882Z,57.48
2022-09-15T01:58:50.895Z,57.23
2022-09-15T02:01:31.624Z,56.98
2022-09-15T02:04:10.736Z,57.16
2022-09-15T02:06:53.322Z,56.92
2022-09-15T02:09:30.739Z,56.84
2022-09-15T02:12:12.575Z,56.84
2022-09-15T02:14:53.200Z,56.98
2022-09-15T02:17:32.645Z,56.63
2022-09-15T02:20:15.623Z,56.81
2022-09-15T02:22:53.887Z,56.86
2022-09-15T02:25:32.046Z,57.18
2022-09-15T02:28:09.738Z,56.72
2022-09-15T02:30:46.611Z,57.08
2022-09-15T02:33:24.499Z,56.98
2022-09-15T02:35:57.364Z,56.67
2022-09-15T02:38:34.988Z,56.88
2022-09-15T02:41:07.903Z,56.76
2022-09-15T02:43:45.381Z,56.71
2022-09-15T02:46:21.023Z,56.76
2022-09-15T02:48:54.969Z,56.44
2022-09-15T02:51:27.680Z,57.32
2022-09-15T02:54:01.253Z,57.00
2022-09-15T02:56:33.905Z,56.46
2022-09-15T02:59:06.564Z,56.75
2022-09-15T03:01:39.293Z,56.43
2022-09-15T03:04:13.448Z,56.69
2022-09-15T03:06:46.214Z,56.86
2022-09-15T03:09:18.951Z,56.94
2022-09-15T03:11:51.655Z,56.41
2022-09-15T03:14:24.292Z,56.46
2022-09-15T03:16:58.359Z,56.36
2022-09-15T03:19:32.857Z,56.74
2022-09-15T03:22:05.549Z,56.52
2022-09-15T03:24:38.686Z,56.63
2022-09-15T03:27:11.231Z,56.26
2022-09-15T03:29:44.078Z,56.29
2022-09-15T03:32:16.841Z,56.21
2022-09-15T03:34:52.443Z,56.61
2022-09-15T03:37:28.171Z,56.67
2022-09-15T03:40:00.969Z,56.50
2022-09-15T03:42:33.649Z,56.09
2022-09-15T03:45:06.887Z,56.49
2022-09-15T03:47:39.618Z,56.91
2022-09-15T03:50:13.861Z,56.69
2022-09-15T03:52:46.498Z,56.56
2022-09-15T03:55:19.136Z,56.73
2022-09-15T03:57:52.535Z,56.59
2022-09-15T04:00:25.305Z,56.38
2022-09-15T04:02:57.918Z,56.58
2022-09-15T04:05:31.945Z,56.13
2022-09-15T04:08:04.634Z,56.30
2022-09-15T04:10:39.962Z,56.32
2022-09-15T04:13:12.792Z,56.62
2022-09-15T04:15:45.485Z,56.64
2022-09-15T04:18:18.071Z,56.34
2022-09-15T04:20:52.388Z,56.32
2022-09-15T04:23:25.001Z,56.22
2022-09-15T04:25:58.544Z,56.36
2022-09-15T04:28:34.193Z,56.33
2022-09-15T04:31:09.484Z,55.99
2022-09-15T04:33:43.525Z,56.06
2022-09-15T04:36:21.071Z,56.21
2022-09-15T04:38:53.885Z,56.25
2022-09-15T04:41:27.470Z,56.34
2022-09-15T04:44:00.419Z,56.43
2022-09-15T04:46:33.573Z,56.67
2022-09-15T04:49:06.299Z,56.25
2022-09-15T04:51:40.498Z,56.33
2022-09-15T04:54:13.153Z,56.05
2022-09-15T04:56:46.318Z,56.43
2022-09-15T04:59:20.103Z,56.36
2022-09-15T05:01:55.959Z,56.34
2022-09-15T05:04:28.839Z,56.57
2022-09-15T05:07:02.844Z,56.50
2022-09-15T05:09:35.542Z,56.49
2022-09-15T05:12:08.429Z,56.18
2022-09-15T05:14:41.156Z,56.21
2022-09-15T05:17:13.838Z,56.50
2022-09-15T05:19:47.112Z,56.50
2022-09-15T05:22:21.183Z,55.98
2022-09-15T05:24:53.812Z,55.91
2022-09-15T05:27:26.403Z,55.65
2022-09-15T05:30:23.422Z,55.99
2022-09-15T05:32:51.881Z,56.10
2022-09-15T05:35:24.554Z,56.04
2022-09-15T05:37:58.774Z,56.03
2022-09-15T05:40:31.524Z,55.97
2022-09-15T05:43:04.205Z,55.97
2022-09-15T05:45:36.917Z,56.05
2022-09-15T05:48:09.688Z,56.00
2022-09-15T05:50:50.212Z,56.32
2022-09-15T05:53:24.946Z,55.89
2022-09-15T05:55:58.428Z,56.12
2022-09-15T05:58:31.493Z,55.63
2022-09-15T06:01:04.699Z,55.96
2022-09-15T06:03:37.748Z,55.81
2022-09-15T06:06:10.305Z,55.64
2022-09-15T06:08:48.267Z,55.42
2022-09-15T06:11:22.866Z,55.61
2022-09-15T06:13:55.686Z,55.39
2022-09-15T06:16:29.025Z,55.66
2022-09-15T06:19:01.983Z,55.63
2022-09-15T06:21:34.630Z,55.74
2022-09-15T06:24:08.967Z,55.82
2022-09-15T06:26:41.587Z,55.42
2022-09-15T06:29:14.228Z,55.77
2022-09-15T06:31:46.994Z,55.62
2022-09-15T06:34:19.786Z,55.86
2022-09-15T06:36:52.468Z,55.66
2022-09-15T06:39:26.657Z,55.48
2022-09-15T06:42:02.765Z,55.27
2022-09-15T06:44:37.150Z,55.17
2022-09-15T06:47:10.664Z,55.32
2022-09-15T06:49:43.413Z,55.38
2022-09-15T06:52:16.085Z,55.48
2022-09-15T06:54:50.453Z,55.18
2022-09-15T06:57:23.133Z,55.33
2022-09-15T06:59:55.787Z,55.23
2022-09-15T07:02:28.544Z,55.09
2022-09-15T07:05:01.283Z,55.28
2022-09-15T07:07:33.995Z,55.41
2022-09-15T07:10:08.764Z,55.14
2022-09-15T07:12:41.424Z,55.19
2022-09-15T07:15:14.175Z,55.33
2022-09-15T07:17:46.876Z,55.57
2022-09-15T07:20:19.608Z,55.40
2022-09-15T07:22:52.265Z,55.96
2022-09-15T07:25:26.418Z,55.99
2022-09-15T07:27:59.093Z,55.83
2022-09-15T07:30:31.766Z,56.03
2022-09-15T07:33:04.446Z,56.17
2022-09-15T07:35:42.866Z,56.00
2022-09-15T07:38:15.514Z,56.34
2022-09-15T07:40:49.756Z,55.84
2022-09-15T07:43:22.357Z,56.04
2022-09-15T07:45:57.781Z,56.76
2022-09-15T07:48:30.903Z,56.82
2022-09-15T07:51:03.714Z,56.77
2022-09-15T07:53:36.381Z,56.88
2022-09-15T07:56:10.660Z,56.29
2022-09-15T07:58:43.334Z,56.01
2022-09-15T08:01:17.777Z,56.09
2022-09-15T08:03:52.199Z,56.05
2022-09-15T08:06:26.791Z,56.24
2022-09-15T08:09:00.985Z,56.29
2022-09-15T08:11:35.438Z,56.80
2022-09-15T08:14:08.143Z,56.41
2022-09-15T08:16:40.926Z,56.64
2022-09-15T08:19:13.728Z,56.51
2022-09-15T08:21:46.358Z,56.34
2022-09-15T08:24:19.255Z,56.20
2022-09-15T08:26:55.176Z,55.72
2022-09-15T08:29:29.270Z,56.19
2022-09-15T08:32:02.274Z,56.11
2022-09-15T08:34:34.868Z,55.52
2022-09-15T08:37:07.539Z,55.25
2022-09-15T08:39:40.216Z,55.35
2022-09-15T08:42:17.421Z,55.70
2022-09-15T08:44:55.436Z,55.57
2022-09-15T08:47:32.984Z,55.41
2022-09-15T08:50:12.413Z,55.55
2022-09-15T08:52:49.832Z,55.46
2022-09-15T08:55:38.728Z,54.24
2022-09-15T08:58:17.231Z,54.98
2022-09-15T09:00:51.830Z,54.47
2022-09-15T09:03:48.066Z,53.08
2022-09-15T09:06:29.302Z,53.16
2022-09-15T09:09:12.636Z,52.43
2022-09-15T09:11:59.535Z,52.98
2022-09-15T09:14:43.862Z,52.76
2022-09-15T09:17:32.233Z,51.93
2022-09-15T09:20:25.515Z,51.77
2022-09-15T09:23:02.224Z,52.21
2022-09-15T09:25:36.124Z,52.08
2022-09-15T09:28:24.160Z,51.95
2022-09-15T09:31:02.947Z,51.99
2022-09-15T09:33:47.549Z,51.14
2022-09-15T09:36:21.020Z,51.99
2022-09-15T09:38:54.346Z,51.48
2022-09-15T09:41:35.689Z,51.41
2022-09-15T09:44:13.092Z,51.70
2022-09-15T09:46:47.793Z,50.90
2022-09-15T09:49:24.798Z,49.90
2022-09-15T09:51:59.984Z,50.86
2022-09-15T09:54:35.457Z,51.23
2022-09-15T09:57:29.145Z,49.46
2022-09-15T10:00:02.009Z,50.47
2022-09-15T10:02:48.339Z,50.44
2022-09-15T10:05:21.676Z,50.61
2022-09-15T10:07:54.364Z,49.12
2022-09-15T10:10:32.113Z,51.52
2022-09-15T10:13:05.039Z,48.43
2022-09-15T10:15:38.143Z,51.08
2022-09-15T10:18:29.026Z,50.41
2022-09-15T10:21:03.558Z,49.89
2022-09-15T10:23:36.758Z,49.76
2022-09-15T10:26:31.966Z,49.72
2022-09-15T10:29:16.240Z,48.35
2022-09-15T10:31:49.126Z,48.19
2022-09-15T10:34:30.723Z,48.89
2022-09-15T10:37:09.530Z,48.34
2022-09-15T10:39:53.204Z,47.64
2022-09-15T10:42:41.912Z,48.51
2022-09-15T10:45:30.011Z,48.40
2022-09-15T10:48:20.952Z,49.62
2022-09-15T10:50:59.787Z,47.03
2022-09-15T10:53:57.585Z,47.39
2022-09-15T10:56:34.968Z,48.14
2022-09-15T10:59:23.800Z,46.88
2022-09-15T11:02:17.604Z,45.50
2022-09-15T11:05:11.709Z,46.35
2022-09-15T11:07:55.273Z,46.78
2022-09-15T11:10:36.727Z,45.74
2022-09-15T11:13:19.172Z,47.20
2022-09-15T11:16:04.666Z,47.18
2022-09-15T11:18:53.078Z,46.27
2022-09-15T11:21:30.817Z,47.86
2022-09-15T11:24:27.102Z,45.85
2022-09-15T11:27:05.547Z,47.59
2022-09-15T11:29:57.332Z,46.42
2022-09-15T11:32:35.253Z,47.21
2022-09-15T11:35:38.003Z,46.87
2022-09-15T11:38:32.415Z,48.45
2022-09-15T11:41:17.289Z,46.53
2022-09-15T11:44:17.527Z,47.23
2022-09-15T11:47:07.512Z,47.39
2022-09-15T11:49:46.593Z,47.36
2022-09-15T11:52:37.353Z,48.06
2022-09-15T11:55:21.646Z,48.68
2022-09-15T11:58:03.092Z,47.60
2022-09-15T12:00:43.249Z,47.66
2022-09-15T12:03:22.931Z,47.22
2022-09-15T12:05:59.378Z,47.75
2022-09-15T12:08:39.104Z,47.97
2022-09-15T12:11:18.941Z,47.28
2022-09-15T12:13:54.596Z,47.76
2022-09-15T12:16:28.634Z,46.38
2022-09-15T12:19:08.296Z,47.55
2022-09-15T12:21:51.970Z,46.65
2022-09-15T12:24:33.751Z,47.30
2022-09-15T12:27:06.450Z,46.01
2022-09-15T12:29:49.643Z,47.01
2022-09-15T12:32:24.282Z,46.68
2022-09-15T12:35:27.626Z,45.97
2022-09-15T12:38:01.355Z,45.11
2022-09-15T12:40:37.093Z,45.28
2022-09-15T12:43:22.856Z,45.58
2022-09-15T12:45:59.083Z,46.54
2022-09-15T12:48:34.315Z,45.09
2022-09-15T12:51:10.820Z,46.35
2022-09-15T12:53:53.920Z,46.71
2022-09-15T12:56:27.952Z,46.14
2022-09-15T12:59:06.775Z,44.71
2022-09-15T13:01:51.530Z,44.08
2022-09-15T13:04:43.700Z,45.20
2022-09-15T13:07:33.394Z,45.46
2022-09-15T13:10:32.603Z,46.25
2022-09-15T13:13:32.739Z,45.57
2022-09-15T13:16:11.569Z,44.51
2022-09-15T13:18:47.966Z,45.62
2022-09-15T13:21:24.020Z,44.57
2022-09-15T13:23:57.003Z,44.47
2022-09-15T13:26:31.533Z,46.20
2022-09-15T13:29:06.329Z,45.38
2022-09-15T13:31:50.847Z,45.14
2022-09-15T13:35:16.819Z,43.92
2022-09-15T13:38:27.674Z,44.80
2022-09-15T13:41:20.466Z,45.24
2022-09-15T13:44:24.187Z,45.41
2022-09-15T13:47:14.411Z,44.96
2022-09-15T13:49:52.522Z,45.24
2022-09-15T13:52:43.666Z,46.46
2022-09-15T13:55:21.625Z,44.44
2022-09-15T14:00:58.351Z,45.14
2022-09-15T14:03:40.457Z,44.66
2022-09-15T14:06:16.239Z,44.09
2022-09-15T14:08:52.142Z,42.81
2022-09-15T14:11:30.116Z,45.51
2022-09-15T14:14:03.038Z,45.46
2022-09-15T14:16:36.504Z,44.85
2022-09-15T14:19:33.267Z,43.24
2022-09-15T14:22:26.129Z,45.26
2022-09-15T14:25:01.226Z,44.94
2022-09-15T14:27:37.013Z,43.91
2022-09-15T14:30:18.963Z,43.96
2022-09-15T14:32:54.318Z,45.62
2022-09-15T14:35:30.033Z,44.89
2022-09-15T14:38:02.768Z,45.00
2022-09-15T14:40:37.526Z,45.04
2022-09-15T14:43:28.089Z,45.94
2022-09-15T14:46:11.338Z,44.91
2022-09-15T14:48:43.937Z,44.92
2022-09-15T14:51:28.531Z,45.81
2022-09-15T14:54:03.249Z,46.22
2022-09-15T14:56:38.088Z,45.95
2022-09-15T14:59:18.083Z,46.47
2022-09-15T15:01:59.557Z,46.46
2022-09-15T15:04:39.340Z,46.55
2022-09-15T15:07:19.767Z,46.58
2022-09-15T15:09:56.518Z,46.06
2022-09-15T15:12:34.457Z,46.58
2022-09-15T15:15:12.557Z,46.63
2022-09-15T15:17:49.192Z,46.34
2022-09-15T15:20:23.967Z,47.63
2022-09-15T15:23:15.544Z,46.33
2022-09-15T15:25:48.407Z,46.83
2022-09-15T15:28:32.949Z,46.78
2022-09-15T15:31:16.055Z,46.99
2022-09-15T15:33:50.319Z,46.50
2022-09-15T15:36:25.503Z,46.46
2022-09-15T15:39:00.449Z,46.19
2022-09-15T15:41:37.239Z,46.16
2022-09-15T15:44:27.900Z,46.41
2022-09-15T15:47:23.643Z,44.65
2022-09-15T15:50:16.132Z,45.00
2022-09-15T15:52:50.314Z,45.15
2022-09-15T15:55:25.414Z,44.51
2022-09-15T15:57:58.465Z,46.03
2022-09-15T16:00:36.612Z,44.27
2022-09-15T16:03:11.710Z,45.54
2022-09-15T16:05:46.510Z,44.09
2022-09-15T16:08:25.742Z,44.91
2022-09-15T16:11:00.264Z,43.55
2022-09-15T16:13:32.935Z,43.72
2022-09-15T16:16:14.623Z,43.85
2022-09-15T16:18:48.911Z,42.85
2022-09-15T16:21:27.281Z,43.23
2022-09-15T16:23:59.911Z,43.17
2022-09-15T16:26:34.512Z,42.83
2022-09-15T16:29:07.384Z,42.55
2022-09-15T16:31:40.676Z,43.02
2022-09-15T16:34:18.538Z,42.81
2022-09-15T16:36:51.685Z,43.11
2022-09-15T16:39:24.475Z,44.31
2022-09-15T16:44:36.138Z,44.90
2022-09-15T16:47:09.144Z,45.33
2022-09-15T16:49:43.102Z,45.09
2022-09-15T16:52:17.061Z,46.01
2022-09-15T16:54:49.663Z,46.86
2022-09-15T16:57:22.364Z,45.57
2022-09-15T16:59:54.986Z,45.21
2022-09-15T17:02:27.747Z,45.30
2022-09-15T17:05:01.857Z,45.21
2022-09-15T17:07:34.494Z,45.06
2022-09-15T17:10:08.495Z,45.20
2022-09-15T17:12:41.193Z,46.83
2022-09-15T17:15:21.597Z,45.40
2022-09-15T17:17:54.593Z,46.73
2022-09-15T17:20:28.729Z,46.77
2022-09-15T17:23:02.050Z,45.52
2022-09-15T17:25:37.994Z,47.87
2022-09-15T17:28:10.673Z,46.26
2022-09-15T17:30:43.645Z,47.49
2022-09-15T17:33:16.900Z,46.60
2022-09-15T17:35:51.290Z,47.38
2022-09-15T17:38:25.182Z,46.96
2022-09-15T17:40:58.300Z,46.97
2022-09-15T17:43:32.462Z,46.68
2022-09-15T17:46:05.187Z,46.93
2022-09-15T17:48:38.904Z,47.38
2022-09-15T17:51:17.271Z,47.98
2022-09-15T17:53:50.104Z,46.74
2022-09-15T17:56:22.975Z,47.22
2022-09-15T17:58:55.708Z,47.24
2022-09-15T18:01:28.489Z,47.10
2022-09-15T18:04:01.224Z,47.32
2022-09-15T18:06:35.765Z,47.45
2022-09-15T18:09:08.781Z,47.55
2022-09-15T18:11:41.498Z,48.08
2022-09-15T18:14:14.156Z,47.82
2022-09-15T18:16:46.906Z,47.73
2022-09-15T18:19:19.568Z,48.11
2022-09-15T18:21:54.954Z,47.79
2022-09-15T18:24:28.366Z,48.42
2022-09-15T18:27:00.959Z,48.27
2022-09-15T18:29:33.586Z,48.20
2022-09-15T18:32:06.439Z,48.23
2022-09-15T18:34:39.138Z,48.30
2022-09-15T18:37:13.145Z,48.39
2022-09-15T18:39:45.934Z,48.49
2022-09-15T18:42:18.677Z,48.89
2022-09-15T18:44:51.545Z,49.18
2022-09-15T18:47:24.220Z,49.66
2022-09-15T18:49:57.052Z,49.60
2022-09-15T18:52:31.087Z,49.43
2022-09-15T18:55:04.600Z,49.80
2022-09-15T18:57:37.689Z,50.03
2022-09-15T19:00:13.647Z,49.86
2022-09-15T19:02:47.205Z,50.08
2022-09-15T19:05:19.934Z,50.34
2022-09-15T19:07:55.274Z,50.77
2022-09-15T19:10:28.152Z,50.45
2022-09-15T19:13:00.947Z,50.76
2022-09-15T19:15:36.581Z,51.13
2022-09-15T19:18:09.290Z,50.93
2022-09-15T19:20:42.844Z,51.08
2022-09-15T19:23:17.081Z,51.23
2022-09-15T19:25:49.822Z,51.31
2022-09-15T19:28:22.529Z,51.23
2022-09-15T19:30:55.411Z,51.63
2022-09-15T19:33:28.421Z,51.35
2022-09-15T19:36:26.963Z,51.36
2022-09-15T19:38:57.654Z,51.52
2022-09-15T19:41:30.541Z,52.11
2022-09-15T19:44:03.511Z,52.21
2022-09-15T19:46:36.674Z,51.87
2022-09-15T19:49:10.066Z,51.79
2022-09-15T19:51:43.077Z,51.33
2022-09-15T19:54:17.446Z,51.49
2022-09-15T19:56:50.332Z,51.81
2022-09-15T19:59:27.400Z,51.67
2022-09-15T20:02:01.901Z,51.83
2022-09-15T20:07:25.057Z,51.93
2022-09-15T20:09:59.228Z,51.86
2022-09-15T20:12:32.139Z,51.85
2022-09-15T20:15:05.680Z,52.00
2022-09-15T20:17:41.779Z,52.03
2022-09-15T20:20:14.622Z,51.89
2022-09-15T20:22:48.612Z,52.04
2022-09-15T20:25:23.896Z,51.83
2022-09-15T20:27:56.813Z,52.07
2022-09-15T20:30:29.432Z,52.16
2022-09-15T20:33:02.033Z,52.04
2022-09-15T20:35:34.979Z,52.42
2022-09-15T20:38:07.645Z,52.36
2022-09-15T20:40:41.853Z,52.08
2022-09-15T20:43:14.632Z,51.97
2022-09-15T20:45:55.984Z,51.69
2022-09-15T20:48:30.402Z,51.99
2022-09-15T20:51:05.125Z,51.87
2022-09-15T20:53:38.651Z,52.15
2022-09-15T20:56:13.965Z,52.22
2022-09-15T20:58:47.095Z,51.94
2022-09-15T21:01:21.145Z,51.91
2022-09-15T21:03:55.289Z,52.17
2022-09-15T21:06:29.568Z,52.38
2022-09-15T21:09:02.553Z,52.19
2022-09-15T21:11:36.423Z,52.26
2022-09-15T21:14:09.540Z,51.88
2022-09-15T21:16:43.506Z,52.14
2022-09-15T21:19:16.680Z,51.55
2022-09-15T21:21:49.661Z,51.50
2022-09-15T21:24:23.009Z,51.86
2022-09-15T21:27:14.466Z,51.85
2022-09-15T21:29:48.207Z,52.36
2022-09-15T21:32:21.061Z,52.24
2022-09-15T21:34:56.023Z,52.16
2022-09-15T21:37:28.844Z,52.22
2022-09-15T21:40:02.009Z,52.12
2022-09-15T21:42:35.930Z,52.19
2022-09-15T21:45:09.791Z,52.34
2022-09-15T21:47:42.642Z,52.53
2022-09-15T21:50:15.422Z,52.12
2022-09-15T21:52:54.820Z,51.82
2022-09-15T21:55:27.640Z,51.51
2022-09-15T21:58:01.952Z,51.93
2022-09-15T22:00:37.373Z,51.98
2022-09-15T22:03:10.850Z,52.03
2022-09-15T22:05:45.924Z,51.92
2022-09-15T22:08:19.391Z,51.64
2022-09-15T22:11:01.172Z,51.82
2022-09-15T22:13:37.548Z,51.46
2022-09-15T22:16:13.508Z,51.89
2022-09-15T22:18:46.789Z,51.80
2022-09-15T22:21:20.881Z,51.46
2022-09-15T22:23:56.171Z,51.24
2022-09-15T22:26:31.137Z,51.44
2022-09-15T22:29:05.372Z,51.08
2022-09-15T22:31:38.761Z,51.02
2022-09-15T22:34:11.610Z,51.13
2022-09-15T22:36:44.341Z,51.04
2022-09-15T22:39:17.479Z,50.81
2022-09-15T22:41:50.382Z,50.98
2022-09-15T22:44:24.390Z,51.17
2022-09-15T22:46:57.477Z,51.23
2022-09-15T22:49:30.005Z,51.03
2022-09-15T22:52:03.177Z,50.96
2022-09-15T22:54:36.073Z,51.21
2022-09-15T22:57:08.826Z,51.21
2022-09-15T22:59:42.861Z,50.90
2022-09-15T23:02:16.014Z,51.16
2022-09-15T23:04:48.754Z,51.13
2022-09-15T23:07:21.436Z,50.96
2022-09-15T23:09:54.355Z,50.84
2022-09-15T23:12:27.388Z,51.08
2022-09-15T23:15:04.115Z,50.98
2022-09-15T23:17:36.989Z,51.27
2022-09-15T23:20:11.221Z,51.38
2022-09-15T23:22:44.227Z,51.11
2022-09-15T23:25:17.274Z,51.35
2022-09-15T23:27:50.495Z,51.09
2022-09-15T23:30:24.482Z,51.34
2022-09-15T23:32:57.614Z,50.85
2022-09-15T23:35:30.312Z,51.66
2022-09-15T23:38:03.534Z,51.13
2022-09-15T23:40:36.174Z,51.28
2022-09-15T23:43:09.154Z,51.28
2022-09-15T23:45:44.571Z,51.58
2022-09-15T23:48:17.214Z,51.28
2022-09-15T23:50:49.915Z,51.12
2022-09-15T23:53:22.634Z,51.63
2022-09-15T23:55:55.752Z,52.24
2022-09-15T23:58:28.516Z,51.89
